Time;durP1;ratioP1;P1;durP2;ratioP2;P2;SDS_P1;SDS_P2;PMS_P1;PMS_P2;Temp;Humidity;BMP_temperature;BMP_pressure;BME280_temperature;BME280_humidity;BME280_pressure;Samples;Min_cycle;Max_cycle;Signal;HPM_P1;HPM_P2
2021/11/28 00:02:15;;;;;;;10.38;2.60;;;6.10;99.90;;;;;;4997648;28;20018;-72
2021/11/28 00:04:41;;;;;;;11.60;2.00;;;6.10;99.90;;;;;;4979260;28;20026;-74
2021/11/28 00:07:20;;;;;;;7.45;1.52;;;6.10;99.90;;;;;;4997017;28;20030;-74
2021/11/28 00:14:41;;;;;;;7.80;1.67;;;6.00;99.90;;;;;;4997151;28;20030;-73
2021/11/28 00:17:08;;;;;;;10.05;1.92;;;6.00;99.90;;;;;;4996784;28;20476;-73
2021/11/28 00:19:34;;;;;;;7.35;1.70;;;6.00;99.90;;;;;;4997046;28;20077;-73
2021/11/28 00:22:00;;;;;;;10.80;1.90;;;6.00;99.90;;;;;;4996699;28;20431;-72
2021/11/28 00:24:25;;;;;;;9.15;2.15;;;6.00;99.90;;;;;;4996665;28;20030;-74
2021/11/28 00:26:52;;;;;;;8.73;2.00;;;6.00;99.90;;;;;;4996599;28;20034;-73
2021/11/28 00:29:18;;;;;;;4.30;1.60;;;5.90;99.90;;;;;;4996587;28;20037;-73
2021/11/28 00:31:43;;;;;;;10.27;1.90;;;5.90;99.90;;;;;;4996526;28;20014;-73
2021/11/28 00:34:09;;;;;;;7.57;1.58;;;5.90;99.90;;;;;;4996398;28;20475;-74
2021/11/28 00:36:35;;;;;;;9.55;2.35;;;5.90;99.90;;;;;;4996070;28;20027;-71
2021/11/28 00:39:00;;;;;;;4.85;1.73;;;5.90;99.90;;;;;;4996358;28;20472;-74
2021/11/28 00:41:26;;;;;;;8.13;1.80;;;5.90;99.90;;;;;;4996864;28;20038;-75
2021/11/28 00:43:52;;;;;;;9.18;1.90;;;5.90;99.90;;;;;;4996786;28;20081;-72
2021/11/28 00:46:17;;;;;;;8.13;1.45;;;5.90;99.90;;;;;;4995916;28;20057;-72
2021/11/28 00:48:45;;;;;;;9.45;1.90;;;5.90;99.90;;;;;;4996233;28;20060;-72
2021/11/28 00:53:47;;;;;;;6.28;1.58;;;5.80;99.90;;;;;;4995806;28;20030;-73
2021/11/28 00:56:14;;;;;;;4.85;1.30;;;5.90;99.90;;;;;;4996351;28;20026;-72
2021/11/28 00:58:39;;;;;;;10.27;1.88;;;5.90;99.90;;;;;;4996040;28;20080;-74
2021/11/28 01:01:05;;;;;;;8.10;1.67;;;5.90;99.90;;;;;;4996027;28;20026;-74
2021/11/28 01:03:31;;;;;;;13.82;1.83;;;5.90;99.90;;;;;;4978521;28;20061;-72
2021/11/28 01:05:56;;;;;;;10.38;2.42;;;6.00;99.90;;;;;;4995930;28;20105;-74
2021/11/28 01:08:23;;;;;;;5.82;1.38;;;6.00;99.90;;;;;;4995859;28;20117;-72
2021/11/28 01:10:49;;;;;;;7.75;1.42;;;6.00;99.90;;;;;;4995830;28;20025;-73
2021/11/28 01:13:18;;;;;;;7.32;1.85;;;6.00;99.90;;;;;;4995699;28;20431;-73
2021/11/28 01:15:45;;;;;;;11.00;1.98;;;6.00;99.90;;;;;;4995707;28;20542;-71
2021/11/28 01:18:11;;;;;;;9.07;1.60;;;5.90;99.90;;;;;;4995619;28;20027;-74
2021/11/28 01:20:37;;;;;;;7.93;2.00;;;5.90;99.90;;;;;;4996184;28;20019;-75
2021/11/28 01:23:03;;;;;;;8.27;2.00;;;5.80;99.90;;;;;;4995621;28;20026;-72
2021/11/28 01:25:29;;;;;;;8.80;1.80;;;5.80;99.90;;;;;;4995549;28;20031;-72
2021/11/28 01:27:54;;;;;;;6.63;1.80;;;5.80;99.90;;;;;;4995473;28;20112;-72
2021/11/28 01:30:20;;;;;;;12.13;1.65;;;5.80;99.90;;;;;;4995469;28;20031;-74
2021/11/28 01:32:47;;;;;;;7.38;1.65;;;5.80;99.90;;;;;;4995608;28;20034;-74
2021/11/28 01:35:14;;;;;;;7.18;1.60;;;5.80;99.90;;;;;;4995393;28;20114;-72
2021/11/28 01:37:41;;;;;;;9.95;1.75;;;5.80;99.90;;;;;;4995342;28;20038;-73
2021/11/28 01:40:12;;;;;;;7.03;1.45;;;5.80;99.90;;;;;;4995249;28;20026;-74
2021/11/28 01:42:40;;;;;;;8.68;1.42;;;5.80;99.90;;;;;;4995505;28;20038;-72
2021/11/28 01:45:10;;;;;;;5.15;1.13;;;5.80;99.90;;;;;;4994991;28;20511;-73
2021/11/28 01:47:35;;;;;;;6.55;2.42;;;5.80;99.90;;;;;;4995156;28;20023;-74
2021/11/28 01:50:02;;;;;;;12.30;2.38;;;5.80;99.90;;;;;;4994710;28;20077;-72
2021/11/28 01:52:28;;;;;;;9.43;1.63;;;5.80;99.90;;;;;;4994910;28;20030;-72
2021/11/28 01:54:54;;;;;;;10.80;2.25;;;5.80;99.90;;;;;;4995001;28;20026;-74
2021/11/28 01:57:20;;;;;;;4.97;1.67;;;5.80;99.90;;;;;;4994931;28;20030;-73
2021/11/28 01:59:46;;;;;;;3.92;1.20;;;5.80;99.90;;;;;;4994896;28;20130;-73
2021/11/28 02:02:12;;;;;;;7.00;1.70;;;5.80;99.90;;;;;;4994805;28;20022;-71
2021/11/28 02:04:37;;;;;;;9.32;2.08;;;5.80;99.90;;;;;;4995041;28;20030;-74
2021/11/28 02:07:03;;;;;;;12.45;1.85;;;5.80;99.90;;;;;;4995272;28;20022;-72
2021/11/28 02:09:29;;;;;;;8.77;1.80;;;5.80;99.90;;;;;;4994700;28;20041;-72
2021/11/28 02:11:55;;;;;;;7.70;1.48;;;5.80;99.90;;;;;;4994631;28;20034;-73
2021/11/28 02:14:21;;;;;;;5.22;1.38;;;5.70;99.90;;;;;;4994567;28;20026;-72
2021/11/28 02:16:47;;;;;;;6.70;1.50;;;5.80;99.90;;;;;;4994579;28;20390;-72
2021/11/28 02:19:20;;;;;;;7.28;1.45;;;5.70;99.90;;;;;;5132304;27;20466;-74
2021/11/28 02:21:46;;;;;;;6.85;1.50;;;5.70;99.90;;;;;;5111218;28;20111;-73
2021/11/28 02:24:12;;;;;;;7.60;1.60;;;5.70;99.90;;;;;;5111415;28;20104;-73
2021/11/28 02:26:37;;;;;;;6.15;1.38;;;5.70;99.90;;;;;;5111047;28;20028;-72
2021/11/28 02:29:03;;;;;;;9.40;1.52;;;5.70;99.90;;;;;;5111022;28;20024;-71
2021/11/28 02:31:29;;;;;;;8.20;1.45;;;5.70;99.90;;;;;;5110930;28;20015;-73
2021/11/28 02:33:55;;;;;;;6.65;1.73;;;5.70;99.90;;;;;;5111713;28;20069;-74
2021/11/28 02:36:20;;;;;;;3.83;1.20;;;5.70;99.90;;;;;;5110897;28;20472;-73
2021/11/28 02:38:46;;;;;;;5.72;1.50;;;5.70;99.90;;;;;;5110838;28;20391;-75
2021/11/28 02:41:13;;;;;;;3.72;1.20;;;5.60;99.90;;;;;;5110807;28;20095;-73
2021/11/28 02:43:39;;;;;;;8.85;2.20;;;5.70;99.90;;;;;;5093672;28;20020;-74
2021/11/28 02:46:08;;;;;;;6.35;1.50;;;5.60;99.90;;;;;;5090337;28;20076;-73
2021/11/28 02:48:34;;;;;;;7.93;2.42;;;5.70;99.90;;;;;;5090288;28;20103;-74
2021/11/28 02:51:01;;;;;;;3.13;0.93;;;5.60;99.90;;;;;;5090246;28;20494;-72
2021/11/28 02:53:27;;;;;;;7.07;1.30;;;5.60;99.90;;;;;;5090195;28;20024;-74
2021/11/28 02:55:56;;;;;;;6.78;1.15;;;5.60;99.90;;;;;;5090205;28;20024;-74
2021/11/28 02:58:23;;;;;;;6.78;1.50;;;5.60;99.90;;;;;;5090077;28;20055;-73
2021/11/28 03:01:03;;;;;;;3.70;1.00;;;5.60;99.90;;;;;;5090087;28;20020;-73
2021/11/28 03:03:29;;;;;;;6.28;1.70;;;5.60;99.90;;;;;;5090677;28;20078;-75
2021/11/28 03:05:55;;;;;;;6.22;1.10;;;5.60;99.90;;;;;;5090556;28;20016;-75
2021/11/28 03:08:21;;;;;;;8.15;1.58;;;5.60;99.90;;;;;;5089917;28;20039;-75
2021/11/28 03:10:49;;;;;;;6.65;1.42;;;5.50;99.90;;;;;;5089897;28;20016;-74
2021/11/28 03:13:17;;;;;;;7.60;1.30;;;5.50;99.90;;;;;;5089839;28;20035;-71
2021/11/28 03:15:43;;;;;;;4.53;1.00;;;5.50;99.90;;;;;;5089803;28;20074;-72
2021/11/28 03:18:19;;;;;;;7.03;1.55;;;5.50;99.90;;;;;;5079138;28;20064;-74
2021/11/28 03:20:45;;;;;;;11.95;1.42;;;5.60;99.90;;;;;;5069961;28;20021;-72
2021/11/28 03:23:12;;;;;;;5.00;1.20;;;5.50;99.90;;;;;;5069302;28;20081;-73
2021/11/28 03:25:38;;;;;;;5.32;1.02;;;5.50;99.90;;;;;;5069274;28;20021;-74
2021/11/28 03:28:04;;;;;;;6.10;1.25;;;5.50;99.90;;;;;;5069464;28;20031;-72
2021/11/28 03:30:30;;;;;;;4.25;1.20;;;5.50;99.90;;;;;;5057095;28;20485;-74
2021/11/28 03:32:55;;;;;;;6.20;1.88;;;5.50;99.90;;;;;;5056201;28;20040;-72
2021/11/28 03:35:21;;;;;;;3.53;1.40;;;5.50;99.90;;;;;;5055925;28;20020;-73
2021/11/28 03:37:47;;;;;;;9.23;1.10;;;5.40;99.90;;;;;;5055792;28;20033;-74
2021/11/28 03:40:13;;;;;;;7.20;1.85;;;5.50;99.90;;;;;;5055818;28;20428;-74
2021/11/28 03:42:40;;;;;;;6.70;1.65;;;5.40;99.90;;;;;;5055760;28;20092;-75
2021/11/28 03:45:14;;;;;;;4.68;1.35;;;5.40;99.90;;;;;;5056021;28;20381;-73
2021/11/28 03:47:40;;;;;;;4.97;1.40;;;5.40;99.90;;;;;;5055996;28;20029;-75
2021/11/28 03:50:08;;;;;;;4.05;1.08;;;5.50;99.90;;;;;;5055642;28;20032;-73
2021/11/28 03:52:34;;;;;;;8.27;1.85;;;5.50;99.90;;;;;;5037961;28;20056;-73
2021/11/28 03:54:59;;;;;;;6.72;1.02;;;5.40;99.90;;;;;;5055541;28;20049;-70
2021/11/28 03:57:25;;;;;;;7.72;1.15;;;5.40;99.90;;;;;;5055506;28;20412;-73
2021/11/28 03:59:51;;;;;;;6.15;1.58;;;5.40;99.90;;;;;;5055531;28;20017;-74
2021/11/28 04:02:18;;;;;;;6.72;1.50;;;5.40;99.90;;;;;;5055457;28;20052;-72
2021/11/28 04:04:44;;;;;;;8.00;1.40;;;5.40;99.90;;;;;;5055946;28;20017;-72
2021/11/28 04:07:10;;;;;;;6.57;1.48;;;5.30;99.90;;;;;;5055309;28;20607;-73
2021/11/28 04:09:35;;;;;;;3.65;0.95;;;5.40;99.90;;;;;;5055508;28;20025;-72
2021/11/28 04:12:01;;;;;;;5.75;1.45;;;5.40;99.90;;;;;;5055238;28;20021;-73
2021/11/28 04:14:27;;;;;;;3.55;1.30;;;5.40;99.90;;;;;;5055493;28;20354;-75
2021/11/28 04:16:53;;;;;;;5.70;1.20;;;5.30;99.90;;;;;;5055119;28;20025;-73
2021/11/28 04:19:19;;;;;;;4.57;1.60;;;5.30;99.90;;;;;;5055606;28;20041;-73
2021/11/28 04:21:45;;;;;;;5.78;1.70;;;5.40;99.90;;;;;;5055338;28;20021;-72
2021/11/28 04:24:12;;;;;;;2.15;0.90;;;5.40;99.90;;;;;;5055571;28;20032;-73
2021/11/28 04:26:38;;;;;;;5.60;1.13;;;5.40;99.90;;;;;;5055231;28;20063;-74
2021/11/28 04:29:04;;;;;;;7.03;1.42;;;5.40;99.90;;;;;;5054942;28;20025;-73
2021/11/28 04:31:30;;;;;;;6.88;1.42;;;5.40;99.90;;;;;;5055463;28;20024;-75
2021/11/28 04:33:55;;;;;;;8.52;1.45;;;5.40;99.90;;;;;;5036972;28;20032;-73
2021/11/28 04:36:21;;;;;;;6.00;1.20;;;5.40;99.90;;;;;;5054830;28;20040;-73
2021/11/28 04:38:46;;;;;;;2.80;1.17;;;5.40;99.90;;;;;;5054624;28;20025;-73
2021/11/28 04:41:13;;;;;;;11.00;1.38;;;5.40;99.90;;;;;;5053721;28;20036;-72
2021/11/28 04:43:38;;;;;;;4.38;1.30;;;5.40;99.90;;;;;;5054554;28;20469;-71
2021/11/28 04:46:04;;;;;;;8.90;1.23;;;5.50;99.90;;;;;;5054609;28;20071;-73
2021/11/28 04:48:30;;;;;;;4.25;1.42;;;5.50;99.90;;;;;;5054832;28;20053;-75
2021/11/28 04:50:55;;;;;;;5.80;1.40;;;5.50;99.90;;;;;;5054500;28;20499;-74
2021/11/28 04:53:21;;;;;;;3.50;0.98;;;5.60;99.90;;;;;;5054735;28;20481;-74
2021/11/28 04:55:47;;;;;;;6.90;1.30;;;5.50;99.90;;;;;;5054669;28;20031;-74
2021/11/28 04:58:13;;;;;;;7.90;1.42;;;5.50;99.90;;;;;;5036404;28;20115;-73
2021/11/28 05:00:39;;;;;;;4.38;1.33;;;5.50;99.90;;;;;;5054294;28;20023;-73
2021/11/28 05:03:04;;;;;;;7.93;1.38;;;5.50;99.90;;;;;;5054528;28;20021;-72
2021/11/28 05:05:30;;;;;;;5.40;1.77;;;5.50;99.90;;;;;;5054491;28;20021;-71
2021/11/28 05:07:56;;;;;;;6.45;1.48;;;5.50;99.90;;;;;;5054174;28;20033;-73
2021/11/28 05:10:22;;;;;;;4.13;1.02;;;5.40;99.90;;;;;;5054086;28;20489;-72
2021/11/28 05:12:48;;;;;;;8.90;1.45;;;5.40;99.90;;;;;;5036195;28;20405;-72
2021/11/28 05:15:14;;;;;;;9.63;1.23;;;5.50;99.90;;;;;;5054076;28;20025;-73
2021/11/28 05:17:40;;;;;;;6.93;1.75;;;5.50;99.90;;;;;;5053764;28;20037;-73
2021/11/28 05:20:06;;;;;;;2.80;1.30;;;5.40;99.90;;;;;;5053962;28;20021;-73
2021/11/28 05:22:32;;;;;;;5.72;1.15;;;5.40;99.90;;;;;;5054088;28;20021;-73
2021/11/28 05:24:58;;;;;;;3.17;1.35;;;5.40;99.90;;;;;;5053851;28;20017;-72
2021/11/28 05:27:24;;;;;;;5.78;1.10;;;5.40;99.90;;;;;;5054080;28;20029;-72
2021/11/28 05:29:51;;;;;;;5.43;1.48;;;5.40;99.90;;;;;;5053759;28;20024;-74
2021/11/28 05:32:16;;;;;;;9.15;1.15;;;5.40;99.90;;;;;;5053708;28;20595;-74
2021/11/28 05:34:43;;;;;;;8.85;2.67;;;5.40;99.90;;;;;;5053707;28;20040;-72
2021/11/28 05:37:08;;;;;;;6.45;1.25;;;5.40;99.90;;;;;;5053831;28;20033;-74
2021/11/28 05:39:34;;;;;;;3.53;1.20;;;5.30;99.90;;;;;;5053649;28;20146;-74
2021/11/28 05:42:00;;;;;;;10.45;1.25;;;5.30;99.90;;;;;;5053535;28;20469;-74
2021/11/28 05:44:26;;;;;;;3.83;1.20;;;5.20;99.90;;;;;;5053823;28;20013;-73
2021/11/28 05:46:52;;;;;;;8.80;1.45;;;5.30;99.90;;;;;;5053528;28;20018;-73
2021/11/28 05:49:17;;;;;;;6.45;1.17;;;5.20;99.90;;;;;;5053542;28;20063;-73
2021/11/28 05:51:43;;;;;;;9.10;1.30;;;5.20;99.90;;;;;;5053303;28;20032;-72
2021/11/28 05:54:09;;;;;;;4.90;1.30;;;5.20;99.90;;;;;;5053332;28;20524;-73
2021/11/28 05:56:35;;;;;;;5.07;1.17;;;5.20;99.90;;;;;;5053393;28;20033;-73
2021/11/28 05:59:01;;;;;;;7.85;1.88;;;5.20;99.90;;;;;;5053264;28;20397;-74
2021/11/28 06:01:26;;;;;;;5.50;1.35;;;5.20;99.90;;;;;;5053857;28;20071;-73
2021/11/28 06:03:52;;;;;;;6.50;1.17;;;5.20;99.90;;;;;;5053283;28;20029;-74
2021/11/28 06:06:18;;;;;;;7.05;1.38;;;5.10;99.90;;;;;;5053495;28;20075;-74
2021/11/28 06:08:44;;;;;;;5.35;1.55;;;5.20;99.90;;;;;;5053254;28;20021;-73
2021/11/28 06:11:09;;;;;;;5.00;1.45;;;5.20;99.90;;;;;;5053474;28;20103;-74
2021/11/28 06:13:35;;;;;;;6.10;1.92;;;5.20;99.90;;;;;;5053140;28;20131;-74
2021/11/28 06:16:01;;;;;;;6.13;1.10;;;5.20;99.90;;;;;;5053179;28;20039;-72
2021/11/28 06:18:27;;;;;;;4.68;1.50;;;5.10;99.90;;;;;;5052938;28;20094;-74
2021/11/28 06:20:53;;;;;;;6.55;1.15;;;5.20;99.90;;;;;;5053359;28;20021;-72
2021/11/28 06:23:18;;;;;;;2.97;1.02;;;5.10;99.90;;;;;;5053326;28;20495;-71
2021/11/28 06:25:44;;;;;;;4.40;1.30;;;5.10;99.90;;;;;;5053041;28;20096;-72
2021/11/28 06:28:10;;;;;;;4.78;1.05;;;5.10;99.90;;;;;;5053310;28;20397;-75
2021/11/28 06:30:35;;;;;;;5.80;0.95;;;5.10;99.90;;;;;;5052997;28;20481;-71
2021/11/28 06:33:01;;;;;;;5.50;1.10;;;5.10;99.90;;;;;;5053003;28;20043;-74
2021/11/28 06:35:27;;;;;;;10.38;1.58;;;5.10;99.90;;;;;;5052995;28;20032;-74
2021/11/28 06:37:53;;;;;;;3.72;1.30;;;5.10;99.90;;;;;;5052851;28;20044;-72
2021/11/28 06:40:18;;;;;;;6.68;1.63;;;5.10;99.90;;;;;;5053206;28;20393;-71
2021/11/28 06:42:44;;;;;;;6.32;1.25;;;5.10;99.90;;;;;;5052825;28;20023;-75
2021/11/28 06:45:11;;;;;;;9.07;1.77;;;5.10;99.90;;;;;;5034997;28;20056;-73
2021/11/28 06:47:37;;;;;;;5.63;1.20;;;5.10;99.90;;;;;;5052889;28;20013;-75
2021/11/28 06:50:04;;;;;;;9.57;1.60;;;5.10;99.90;;;;;;5053366;28;20051;-72
2021/11/28 06:52:30;;;;;;;5.07;1.58;;;5.20;99.90;;;;;;5035217;28;20029;-74
2021/11/28 06:54:55;;;;;;;6.43;1.50;;;5.20;99.90;;;;;;5053074;28;20033;-72
2021/11/28 06:57:21;;;;;;;6.28;1.50;;;5.20;99.90;;;;;;5052658;28;20036;-72
2021/11/28 06:59:47;;;;;;;6.22;1.40;;;5.20;99.90;;;;;;5052713;28;20025;-72
2021/11/28 07:02:12;;;;;;;4.53;0.95;;;5.20;99.90;;;;;;5053237;28;20025;-74
2021/11/28 07:04:40;;;;;;;6.20;1.52;;;5.10;99.90;;;;;;5054006;28;20131;-71
2021/11/28 07:07:06;;;;;;;5.70;1.25;;;5.10;99.90;;;;;;5056780;28;20017;-74
2021/11/28 07:09:31;;;;;;;4.88;1.23;;;5.10;99.90;;;;;;5056442;28;20025;-74
2021/11/28 07:11:57;;;;;;;3.10;1.00;;;5.10;99.90;;;;;;5056417;28;20032;-71
2021/11/28 07:14:23;;;;;;;6.57;1.70;;;5.10;99.90;;;;;;5056583;28;20381;-73
2021/11/28 07:16:49;;;;;;;2.85;1.17;;;5.10;99.90;;;;;;5056300;28;20024;-76
2021/11/28 07:19:15;;;;;;;7.95;1.50;;;5.10;99.90;;;;;;5056041;28;20114;-75
2021/11/28 07:21:40;;;;;;;8.23;1.48;;;5.10;99.90;;;;;;5056469;28;20424;-72
2021/11/28 07:24:06;;;;;;;4.25;1.20;;;5.00;99.90;;;;;;5056416;28;20025;-71
2021/11/28 07:26:32;;;;;;;6.65;1.35;;;5.10;99.90;;;;;;5056139;28;20071;-75
2021/11/28 07:28:58;;;;;;;4.07;1.17;;;5.00;99.90;;;;;;5056369;28;20059;-74
2021/11/28 07:31:24;;;;;;;6.78;1.08;;;5.10;99.90;;;;;;5056015;28;20016;-74
2021/11/28 07:33:50;;;;;;;4.75;1.40;;;5.10;99.90;;;;;;5056026;28;20040;-73
2021/11/28 07:36:16;;;;;;;6.22;1.90;;;5.10;99.90;;;;;;5056184;28;20040;-73
2021/11/28 07:38:44;;;;;;;8.55;1.50;;;5.10;99.90;;;;;;5055847;28;20033;-73
2021/11/28 07:41:10;;;;;;;3.15;1.27;;;5.10;99.90;;;;;;5056177;28;20023;-72
2021/11/28 07:43:36;;;;;;;8.75;2.55;;;5.10;99.90;;;;;;5055784;28;20028;-74
2021/11/28 07:46:03;;;;;;;4.22;1.63;;;5.10;99.90;;;;;;5055764;28;20025;-75
2021/11/28 07:48:29;;;;;;;5.85;1.73;;;5.10;99.90;;;;;;5055737;28;20098;-74
2021/11/28 07:50:54;;;;;;;8.40;1.67;;;5.10;99.90;;;;;;5055651;28;20493;-75
2021/11/28 07:53:20;;;;;;;5.72;1.70;;;5.20;99.90;;;;;;5055938;28;20025;-73
2021/11/28 07:55:46;;;;;;;8.43;2.13;;;5.20;99.90;;;;;;5056166;28;20021;-74
2021/11/28 07:58:12;;;;;;;6.75;1.90;;;5.10;99.90;;;;;;5055782;28;20039;-74
2021/11/28 08:00:38;;;;;;;5.60;1.75;;;5.10;99.90;;;;;;5055561;28;20432;-71
2021/11/28 08:03:04;;;;;;;5.55;2.05;;;5.00;99.90;;;;;;5055969;28;20518;-74
2021/11/28 08:05:31;;;;;;;4.32;1.52;;;5.00;99.90;;;;;;5055427;28;20017;-72
2021/11/28 08:07:57;;;;;;;4.95;1.80;;;5.10;99.90;;;;;;5055360;28;20032;-73
2021/11/28 08:10:24;;;;;;;5.82;2.05;;;5.10;99.90;;;;;;5055298;28;20017;-74
2021/11/28 08:12:49;;;;;;;8.23;2.20;;;5.10;99.90;;;;;;5055261;28;20397;-74
2021/11/28 08:15:18;;;;;;;4.68;1.88;;;5.10;99.90;;;;;;5055388;28;20029;-75
2021/11/28 08:17:46;;;;;;;8.77;2.58;;;5.20;99.90;;;;;;5054875;28;20124;-73
2021/11/28 08:20:12;;;;;;;10.82;2.28;;;5.20;99.90;;;;;;5055651;28;20486;-72
2021/11/28 08:22:39;;;;;;;4.53;1.92;;;5.20;99.90;;;;;;5055095;28;20029;-73
2021/11/28 08:25:07;;;;;;;6.95;2.30;;;5.20;99.90;;;;;;5054988;28;20478;-71
2021/11/28 08:27:33;;;;;;;7.93;2.95;;;5.20;99.90;;;;;;5055018;28;20477;-74
2021/11/28 08:30:04;;;;;;;7.22;2.90;;;5.20;99.90;;;;;;5054937;28;20013;-73
2021/11/28 08:32:30;;;;;;;8.43;2.20;;;5.20;99.90;;;;;;5054953;28;20025;-73
2021/11/28 08:34:56;;;;;;;6.93;2.50;;;5.30;99.90;;;;;;5054829;28;20499;-72
2021/11/28 08:37:21;;;;;;;8.23;2.92;;;5.30;99.90;;;;;;5054703;28;20548;-71
2021/11/28 08:39:47;;;;;;;8.10;2.55;;;5.20;99.90;;;;;;5054475;28;20492;-71
2021/11/28 08:42:13;;;;;;;8.05;2.42;;;5.30;99.90;;;;;;5054621;28;20021;-73
2021/11/28 08:44:40;;;;;;;7.20;3.25;;;5.40;99.90;;;;;;5054690;28;20017;-73
2021/11/28 08:47:06;;;;;;;6.75;1.73;;;5.40;99.90;;;;;;5054577;28;20536;-73
2021/11/28 08:49:32;;;;;;;6.50;1.80;;;5.40;99.90;;;;;;5054537;28;20025;-72
2021/11/28 08:51:58;;;;;;;8.43;1.95;;;5.40;99.90;;;;;;5054475;28;20036;-72
2021/11/28 08:54:23;;;;;;;8.68;2.03;;;5.50;99.90;;;;;;5054762;28;20024;-73
2021/11/28 08:56:51;;;;;;;6.03;2.30;;;5.60;99.90;;;;;;5054455;28;20036;-73
2021/11/28 08:59:18;;;;;;;5.25;2.08;;;5.60;99.90;;;;;;5054615;28;20021;-73
2021/11/28 09:01:44;;;;;;;7.22;2.13;;;5.70;99.90;;;;;;5054564;28;20473;-72
2021/11/28 09:04:11;;;;;;;7.82;1.92;;;5.70;99.90;;;;;;5054257;28;20013;-73
2021/11/28 09:06:36;;;;;;;4.82;1.77;;;5.80;99.90;;;;;;5054510;28;20025;-74
2021/11/28 09:09:03;;;;;;;4.63;2.00;;;5.80;99.90;;;;;;5054205;28;20139;-75
2021/11/28 09:11:29;;;;;;;5.43;2.10;;;5.90;99.90;;;;;;5054448;28;20028;-74
2021/11/28 09:13:55;;;;;;;5.43;2.45;;;5.90;99.90;;;;;;5054639;28;20025;-75
2021/11/28 09:16:20;;;;;;;8.93;2.60;;;5.90;99.90;;;;;;5053998;28;20492;-73
2021/11/28 09:19:00;;;;;;;10.63;2.40;;;6.00;99.90;;;;;;5053568;28;20076;-73
2021/11/28 09:21:27;;;;;;;6.38;2.03;;;6.20;99.90;;;;;;5054289;28;20461;-73
2021/11/28 09:26:40;;;;;;;6.30;1.83;;;6.40;99.90;;;;;;5053637;28;20031;-73
2021/11/28 09:29:06;;;;;;;6.40;2.00;;;6.60;99.90;;;;;;5053981;28;20083;-74
2021/11/28 09:31:32;;;;;;;6.85;2.17;;;6.60;99.90;;;;;;5053870;28;20033;-74
2021/11/28 09:33:59;;;;;;;4.70;1.80;;;6.70;99.90;;;;;;5053775;28;20078;-73
2021/11/28 09:36:27;;;;;;;3.50;1.45;;;6.70;99.90;;;;;;5053712;28;20032;-74
2021/11/28 09:38:53;;;;;;;5.88;2.22;;;6.80;99.90;;;;;;5054142;28;20417;-73
2021/11/28 09:41:20;;;;;;;7.20;2.00;;;6.90;99.90;;;;;;5053623;28;20028;-72
2021/11/28 09:43:52;;;;;;;6.97;2.13;;;7.00;99.90;;;;;;5053489;28;20024;-73
2021/11/28 09:46:22;;;;;;;5.20;1.75;;;7.00;99.90;;;;;;5053574;28;20028;-75
2021/11/28 09:48:57;;;;;;;5.68;1.52;;;7.00;99.90;;;;;;5053484;28;20040;-71
2021/11/28 09:51:24;;;;;;;3.80;1.38;;;7.10;99.90;;;;;;5035354;28;20124;-73
2021/11/28 09:53:51;;;;;;;6.97;1.88;;;7.20;99.90;;;;;;5053409;28;20544;-72
2021/11/28 09:56:17;;;;;;;5.93;1.70;;;7.30;99.90;;;;;;5053660;28;20033;-74
2021/11/28 09:58:44;;;;;;;5.80;2.22;;;7.20;99.90;;;;;;5053282;28;20025;-72
2021/11/28 10:01:09;;;;;;;4.93;1.70;;;7.20;99.90;;;;;;5053869;28;20052;-74
2021/11/28 10:03:35;;;;;;;7.75;1.80;;;7.20;99.90;;;;;;5053540;28;20461;-72
2021/11/28 10:06:01;;;;;;;9.93;1.58;;;7.20;99.90;;;;;;5053533;28;20025;-73
2021/11/28 10:08:27;;;;;;;4.47;1.58;;;7.30;99.90;;;;;;5053522;28;20456;-74
2021/11/28 10:11:07;;;;;;;3.30;1.55;;;7.30;99.90;;;;;;5053213;28;20033;-73
2021/11/28 10:13:33;;;;;;;5.28;1.23;;;7.40;99.90;;;;;;5053767;28;20107;-74
2021/11/28 10:15:58;;;;;;;7.28;1.65;;;7.40;99.90;;;;;;5053161;28;20115;-73
2021/11/28 10:18:25;;;;;;;6.38;1.52;;;7.40;99.90;;;;;;5052824;28;20049;-72
2021/11/28 10:20:51;;;;;;;4.80;0.88;;;7.40;99.90;;;;;;5053073;28;20061;-74
2021/11/28 10:23:17;;;;;;;5.72;1.83;;;7.40;99.90;;;;;;5053340;28;20067;-72
2021/11/28 10:25:43;;;;;;;5.88;1.33;;;7.40;99.90;;;;;;5053230;28;20033;-73
2021/11/28 10:28:10;;;;;;;3.38;1.20;;;7.40;99.90;;;;;;5053003;28;20057;-71
2021/11/28 10:30:44;;;;;;;5.75;1.20;;;7.40;99.90;;;;;;5053305;28;20025;-73
2021/11/28 10:33:21;;;;;;;5.00;1.60;;;7.40;99.90;;;;;;5053269;28;20466;-74
2021/11/28 10:36:05;;;;;;;2.67;0.90;;;7.50;99.90;;;;;;5053231;28;20029;-72
2021/11/28 10:38:36;;;;;;;3.58;1.13;;;7.50;99.90;;;;;;5053187;28;20441;-73
2021/11/28 10:41:17;;;;;;;5.50;1.25;;;7.50;99.90;;;;;;5057197;28;20036;-73
2021/11/28 10:43:42;;;;;;;9.05;1.25;;;7.60;99.90;;;;;;5057400;28;20024;-74
2021/11/28 10:46:23;;;;;;;6.43;1.20;;;7.60;99.90;;;;;;5056867;28;20074;-75
2021/11/28 10:49:10;;;;;;;3.28;1.17;;;7.60;99.90;;;;;;5056850;28;20017;-73
2021/11/28 10:51:37;;;;;;;7.45;1.40;;;7.60;99.90;;;;;;5038640;28;20382;-73
2021/11/28 10:54:36;;;;;;;7.47;1.48;;;7.70;99.90;;;;;;5056944;28;20021;-72
2021/11/28 10:57:08;;;;;;;5.63;1.30;;;7.60;99.90;;;;;;5038781;28;20432;-73
2021/11/28 10:59:35;;;;;;;2.97;1.13;;;7.70;99.90;;;;;;5056457;28;20031;-71
2021/11/28 11:02:17;;;;;;;3.92;1.00;;;7.70;99.90;;;;;;5056622;28;20021;-75
2021/11/28 11:04:43;;;;;;;6.40;1.83;;;7.80;99.90;;;;;;5056942;28;20045;-72
2021/11/28 11:07:13;;;;;;;5.28;1.20;;;7.80;99.90;;;;;;5056485;28;20025;-73
2021/11/28 11:09:40;;;;;;;3.03;0.90;;;7.90;99.90;;;;;;5056782;28;20433;-74
2021/11/28 11:12:32;;;;;;;7.82;1.35;;;7.90;99.90;;;;;;5056423;28;20090;-73
2021/11/28 11:14:58;;;;;;;7.18;1.60;;;7.90;99.90;;;;;;5056678;28;20024;-72
2021/11/28 11:17:27;;;;;;;4.25;1.45;;;7.90;99.90;;;;;;5056484;28;20044;-73
2021/11/28 11:19:53;;;;;;;5.85;1.15;;;7.90;99.90;;;;;;5056335;28;20017;-73
2021/11/28 11:22:26;;;;;;;3.60;1.20;;;7.80;99.90;;;;;;5056227;28;20075;-74
2021/11/28 11:25:15;;;;;;;5.03;2.42;;;7.80;99.90;;;;;;5056550;28;20420;-71
2021/11/28 11:27:44;;;;;;;6.90;1.30;;;7.80;99.90;;;;;;5038034;28;20108;-75
2021/11/28 11:30:16;;;;;;;4.65;1.13;;;7.80;99.90;;;;;;5056058;28;20389;-75
2021/11/28 11:32:51;;;;;;;2.70;1.30;;;7.80;99.90;;;;;;5056076;28;20112;-74
2021/11/28 11:35:23;;;;;;;5.10;1.30;;;7.80;99.90;;;;;;5056317;28;20428;-72
2021/11/28 11:37:51;;;;;;;3.85;0.90;;;7.80;99.90;;;;;;5055855;28;20073;-73
2021/11/28 11:40:20;;;;;;;6.72;1.45;;;7.90;99.90;;;;;;5056150;28;20560;-74
2021/11/28 11:42:48;;;;;;;5.78;1.30;;;7.90;99.90;;;;;;5055792;28;20528;-73
2021/11/28 11:45:17;;;;;;;5.43;1.20;;;7.90;99.90;;;;;;5055826;28;20393;-73
2021/11/28 11:47:44;;;;;;;3.25;0.90;;;7.90;99.90;;;;;;5055776;28;20109;-72
2021/11/28 11:50:12;;;;;;;7.78;1.30;;;7.80;99.90;;;;;;5055786;28;20025;-74
2021/11/28 11:52:38;;;;;;;7.30;1.38;;;7.80;99.90;;;;;;5055678;28;20033;-72
2021/11/28 11:55:14;;;;;;;5.40;1.30;;;7.80;99.90;;;;;;5055613;28;20017;-72
2021/11/28 11:58:11;;;;;;;4.35;1.20;;;7.80;99.90;;;;;;5055844;28;20060;-73
2021/11/28 12:00:40;;;;;;;6.35;1.42;;;7.80;99.90;;;;;;5038178;28;20043;-72
2021/11/28 12:03:18;;;;;;;2.08;1.35;;;7.80;99.90;;;;;;5055464;28;20056;-74
2021/11/28 12:05:46;;;;;;;6.55;1.23;;;7.80;99.90;;;;;;5055732;28;20495;-72
2021/11/28 12:08:15;;;;;;;3.20;0.90;;;7.80;99.90;;;;;;5055349;28;20539;-74
2021/11/28 12:10:42;;;;;;;7.80;1.67;;;7.70;99.90;;;;;;5055286;28;20048;-73
2021/11/28 12:13:27;;;;;;;3.75;1.05;;;7.80;99.90;;;;;;5055288;28;20082;-74
2021/11/28 12:16:03;;;;;;;7.32;1.23;;;7.80;99.90;;;;;;5055554;28;20067;-74
2021/11/28 12:18:34;;;;;;;2.83;1.17;;;7.80;99.90;;;;;;5055080;28;20493;-72
2021/11/28 12:21:04;;;;;;;4.32;1.13;;;7.80;99.90;;;;;;5055392;28;20040;-74
2021/11/28 12:23:54;;;;;;;3.78;1.13;;;7.90;99.90;;;;;;5055329;28;20028;-73
2021/11/28 12:26:26;;;;;;;3.17;0.85;;;7.90;99.90;;;;;;5055626;28;20420;-73
2021/11/28 12:29:13;;;;;;;6.45;1.25;;;8.00;99.90;;;;;;5055043;28;20029;-74
2021/11/28 12:31:45;;;;;;;4.10;0.88;;;8.10;99.90;;;;;;5055264;28;20025;-73
2021/11/28 12:34:13;;;;;;;5.38;1.33;;;8.10;99.90;;;;;;5055214;28;20025;-73
2021/11/28 12:36:46;;;;;;;2.22;0.80;;;8.10;99.90;;;;;;5054846;28;20504;-74
2021/11/28 12:39:24;;;;;;;5.13;1.10;;;8.00;99.90;;;;;;5054698;28;20033;-74
2021/11/28 12:42:14;;;;;;;4.57;0.88;;;8.00;99.90;;;;;;5054995;28;20017;-73
2021/11/28 12:44:48;;;;;;;5.10;1.00;;;8.00;99.90;;;;;;5055366;28;20025;-74
2021/11/28 12:47:14;;;;;;;4.57;1.30;;;8.00;99.90;;;;;;5054888;28;20544;-73
2021/11/28 12:49:54;;;;;;;4.43;0.98;;;8.00;99.90;;;;;;5054618;28;20096;-73
2021/11/28 12:52:25;;;;;;;4.65;1.35;;;8.00;99.90;;;;;;5054853;28;20159;-73
2021/11/28 12:55:07;;;;;;;5.90;0.90;;;8.00;99.90;;;;;;5054510;28;20032;-72
2021/11/28 12:57:34;;;;;;;5.20;1.13;;;8.00;99.90;;;;;;5054342;28;20079;-73
2021/11/28 13:00:11;;;;;;;4.97;0.70;;;7.90;99.90;;;;;;5054645;28;20025;-72
2021/11/28 13:02:43;;;;;;;4.68;0.90;;;7.90;99.90;;;;;;5035602;28;20389;-73
2021/11/28 13:05:27;;;;;;;5.13;1.33;;;7.90;99.90;;;;;;5054556;28;20025;-74
2021/11/28 13:07:54;;;;;;;5.43;1.38;;;7.90;99.90;;;;;;5036337;28;20392;-71
2021/11/28 13:10:44;;;;;;;4.40;1.48;;;7.90;99.90;;;;;;5054230;28;20021;-72